sensor_id;sensor_type;location;lat;lon;timestamp;pressure;altitude;pressure_sealevel;temperature;humidity
5954;BME280;3002;42.642;24.812;2024-01-10T00:01:45;97527.69;;;0.90;88.14
5954;BME280;3002;42.642;24.812;2024-01-10T00:04:11;97549.47;;;1.05;87.32
5954;BME280;3002;42.642;24.812;2024-01-10T00:06:36;97527.88;;;0.75;87.81
5954;BME280;3002;42.642;24.812;2024-01-10T00:09:02;97561.28;;;1.02;89.02
5954;BME280;3002;42.642;24.812;2024-01-10T00:11:27;97564.66;;;0.83;89.77
5954;BME280;3002;42.642;24.812;2024-01-10T00:13:53;97542.50;;;0.30;91.36
5954;BME280;3002;42.642;24.812;2024-01-10T00:16:27;97547.97;;;0.76;88.98
5954;BME280;3002;42.642;24.812;2024-01-10T00:18:53;97577.47;;;0.86;88.91
5954;BME280;3002;42.642;24.812;2024-01-10T00:21:18;97574.69;;;0.60;90.02
5954;BME280;3002;42.642;24.812;2024-01-10T00:23:44;97543.91;;;0.67;87.56
5954;BME280;3002;42.642;24.812;2024-01-10T00:26:09;97574.91;;;0.58;89.45
5954;BME280;3002;42.642;24.812;2024-01-10T00:28:40;97571.78;;;0.89;88.83
5954;BME280;3002;42.642;24.812;2024-01-10T00:31:05;97559.19;;;0.85;88.10
5954;BME280;3002;42.642;24.812;2024-01-10T00:33:31;97579.34;;;1.05;87.98
5954;BME280;3002;42.642;24.812;2024-01-10T00:35:56;97547.81;;;0.84;88.24
5954;BME280;3002;42.642;24.812;2024-01-10T00:38:22;97559.25;;;0.50;88.17
5954;BME280;3002;42.642;24.812;2024-01-10T00:40:47;97585.38;;;0.79;88.07
5954;BME280;3002;42.642;24.812;2024-01-10T00:43:13;97558.50;;;0.69;87.09
5954;BME280;3002;42.642;24.812;2024-01-10T00:45:38;97556.19;;;0.53;88.09
5954;BME280;3002;42.642;24.812;2024-01-10T00:48:04;97574.94;;;0.65;87.26
5954;BME280;3002;42.642;24.812;2024-01-10T00:50:29;63789.69;;;-144.75;100.00
5954;BME280;3002;42.642;24.812;2024-01-10T00:52:55;63789.69;;;-144.75;100.00
5954;BME280;3002;42.642;24.812;2024-01-10T00:55:20;63789.69;;;-144.75;100.00
5954;BME280;3002;42.642;24.812;2024-01-10T00:57:46;63789.69;;;-144.75;100.00
5954;BME280;3002;42.642;24.812;2024-01-10T01:00:11;63789.69;;;-144.75;100.00
5954;BME280;3002;42.642;24.812;2024-01-10T01:02:38;63789.69;;;-144.75;100.00
5954;BME280;3002;42.642;24.812;2024-01-10T01:05:06;63789.69;;;-144.75;100.00
5954;BME280;3002;42.642;24.812;2024-01-10T01:07:35;63789.69;;;-144.75;100.00
5954;BME280;3002;42.642;24.812;2024-01-10T01:10:01;63789.69;;;-144.75;100.00
5954;BME280;3002;42.642;24.812;2024-01-10T01:12:27;63789.69;;;-144.75;100.00
5954;BME280;3002;42.642;24.812;2024-01-10T01:14:52;63789.69;;;-144.75;100.00
5954;BME280;3002;42.642;24.812;2024-01-10T01:17:18;63789.69;;;-144.75;100.00
5954;BME280;3002;42.642;24.812;2024-01-10T01:19:43;63789.69;;;-144.75;100.00
5954;BME280;3002;42.642;24.812;2024-01-10T01:22:08;63789.69;;;-144.75;100.00
5954;BME280;3002;42.642;24.812;2024-01-10T01:24:34;63789.69;;;-144.75;100.00
5954;BME280;3002;42.642;24.812;2024-01-10T01:26:59;63789.69;;;-144.75;100.00
5954;BME280;3002;42.642;24.812;2024-01-10T01:29:49;63789.69;;;-144.75;100.00
5954;BME280;3002;42.642;24.812;2024-01-10T01:32:15;63789.69;;;-144.75;100.00
5954;BME280;3002;42.642;24.812;2024-01-10T01:34:40;63789.69;;;-144.75;100.00
5954;BME280;3002;42.642;24.812;2024-01-10T01:37:06;63789.69;;;-144.75;100.00
5954;BME280;3002;42.642;24.812;2024-01-10T01:39:31;63789.69;;;-144.75;100.00
5954;BME280;3002;42.642;24.812;2024-01-10T01:41:56;63789.69;;;-144.75;100.00
5954;BME280;3002;42.642;24.812;2024-01-10T01:44:22;63789.69;;;-144.75;100.00
5954;BME280;3002;42.642;24.812;2024-01-10T01:46:48;63789.69;;;-144.75;100.00
5954;BME280;3002;42.642;24.812;2024-01-10T01:49:14;63789.69;;;-144.75;100.00
5954;BME280;3002;42.642;24.812;2024-01-10T01:51:40;63789.69;;;-144.75;100.00
5954;BME280;3002;42.642;24.812;2024-01-10T01:54:07;63789.69;;;-144.75;100.00
5954;BME280;3002;42.642;24.812;2024-01-10T01:56:36;63789.69;;;-144.75;100.00
5954;BME280;3002;42.642;24.812;2024-01-10T01:59:03;63789.69;;;-144.75;100.00
5954;BME280;3002;42.642;24.812;2024-01-10T02:01:32;63789.69;;;-144.75;100.00
5954;BME280;3002;42.642;24.812;2024-01-10T02:03:59;63789.69;;;-144.75;100.00
5954;BME280;3002;42.642;24.812;2024-01-10T02:06:25;63789.69;;;-144.75;100.00
5954;BME280;3002;42.642;24.812;2024-01-10T02:08:51;63789.69;;;-144.75;100.00
5954;BME280;3002;42.642;24.812;2024-01-10T02:11:17;63789.69;;;-144.75;100.00
5954;BME280;3002;42.642;24.812;2024-01-10T02:13:44;63789.69;;;-144.75;100.00
5954;BME280;3002;42.642;24.812;2024-01-10T02:16:10;63789.69;;;-144.75;100.00
5954;BME280;3002;42.642;24.812;2024-01-10T02:18:35;63789.69;;;-144.75;100.00
5954;BME280;3002;42.642;24.812;2024-01-10T02:21:01;63789.69;;;-144.75;100.00
5954;BME280;3002;42.642;24.812;2024-01-10T02:23:27;63789.69;;;-144.75;100.00
5954;BME280;3002;42.642;24.812;2024-01-10T02:25:52;63789.69;;;-144.75;100.00
5954;BME280;3002;42.642;24.812;2024-01-10T02:34:58;63789.69;;;-144.75;100.00
5954;BME280;3002;42.642;24.812;2024-01-10T02:37:24;63789.69;;;-144.75;100.00
5954;BME280;3002;42.642;24.812;2024-01-10T02:39:50;63789.69;;;-144.75;100.00
5954;BME280;3002;42.642;24.812;2024-01-10T02:42:16;63789.69;;;-144.75;100.00
5954;BME280;3002;42.642;24.812;2024-01-10T02:48:03;63789.69;;;-144.75;100.00
5954;BME280;3002;42.642;24.812;2024-01-10T02:50:29;63789.69;;;-144.75;100.00
5954;BME280;3002;42.642;24.812;2024-01-10T02:52:54;63789.69;;;-144.75;100.00
5954;BME280;3002;42.642;24.812;2024-01-10T02:55:20;63789.69;;;-144.75;100.00
5954;BME280;3002;42.642;24.812;2024-01-10T02:57:45;63789.69;;;-144.75;100.00
5954;BME280;3002;42.642;24.812;2024-01-10T03:00:11;63789.69;;;-144.75;100.00
5954;BME280;3002;42.642;24.812;2024-01-10T03:02:37;63789.69;;;-144.75;100.00
5954;BME280;3002;42.642;24.812;2024-01-10T03:05:02;63789.69;;;-144.75;100.00
5954;BME280;3002;42.642;24.812;2024-01-10T03:07:28;63789.69;;;-144.75;100.00
5954;BME280;3002;42.642;24.812;2024-01-10T03:09:53;63789.69;;;-144.75;100.00
5954;BME280;3002;42.642;24.812;2024-01-10T03:12:19;63789.69;;;-144.75;100.00
5954;BME280;3002;42.642;24.812;2024-01-10T03:14:44;63789.69;;;-144.75;100.00
5954;BME280;3002;42.642;24.812;2024-01-10T03:17:10;63789.69;;;-144.75;100.00
5954;BME280;3002;42.642;24.812;2024-01-10T03:19:35;63789.69;;;-144.75;100.00
5954;BME280;3002;42.642;24.812;2024-01-10T03:22:07;63789.69;;;-144.75;100.00
5954;BME280;3002;42.642;24.812;2024-01-10T03:24:33;63789.69;;;-144.75;100.00
5954;BME280;3002;42.642;24.812;2024-01-10T03:26:58;63789.69;;;-144.75;100.00
5954;BME280;3002;42.642;24.812;2024-01-10T03:29:24;63789.69;;;-144.75;100.00
5954;BME280;3002;42.642;24.812;2024-01-10T03:31:49;63789.69;;;-144.75;100.00
5954;BME280;3002;42.642;24.812;2024-01-10T03:34:14;63789.69;;;-144.75;100.00
5954;BME280;3002;42.642;24.812;2024-01-10T03:36:42;63789.69;;;-144.75;100.00
5954;BME280;3002;42.642;24.812;2024-01-10T03:39:07;63789.69;;;-144.75;100.00
5954;BME280;3002;42.642;24.812;2024-01-10T03:41:33;63789.69;;;-144.75;100.00
5954;BME280;3002;42.642;24.812;2024-01-10T03:43:58;63789.69;;;-144.75;100.00
5954;BME280;3002;42.642;24.812;2024-01-10T03:46:23;63789.69;;;-144.75;100.00
5954;BME280;3002;42.642;24.812;2024-01-10T03:48:49;63789.69;;;-144.75;100.00
5954;BME280;3002;42.642;24.812;2024-01-10T03:51:16;63789.69;;;-144.75;100.00
5954;BME280;3002;42.642;24.812;2024-01-10T03:53:42;63789.69;;;-144.75;100.00
5954;BME280;3002;42.642;24.812;2024-01-10T03:56:08;63789.69;;;-144.75;100.00
5954;BME280;3002;42.642;24.812;2024-01-10T03:58:40;63789.69;;;-144.75;100.00
5954;BME280;3002;42.642;24.812;2024-01-10T04:01:06;63789.69;;;-144.75;100.00
5954;BME280;3002;42.642;24.812;2024-01-10T04:03:32;63789.69;;;-144.75;100.00
5954;BME280;3002;42.642;24.812;2024-01-10T04:05:58;63789.69;;;-144.75;100.00
5954;BME280;3002;42.642;24.812;2024-01-10T04:08:23;63789.69;;;-144.75;100.00
5954;BME280;3002;42.642;24.812;2024-01-10T04:10:49;63789.69;;;-144.75;100.00
5954;BME280;3002;42.642;24.812;2024-01-10T04:13:14;63789.69;;;-144.75;100.00
5954;BME280;3002;42.642;24.812;2024-01-10T04:15:40;63789.69;;;-144.75;100.00
5954;BME280;3002;42.642;24.812;2024-01-10T04:18:05;63789.69;;;-144.75;100.00
5954;BME280;3002;42.642;24.812;2024-01-10T04:20:31;63789.69;;;-144.75;100.00
5954;BME280;3002;42.642;24.812;2024-01-10T04:22:56;63789.69;;;-144.75;100.00
5954;BME280;3002;42.642;24.812;2024-01-10T04:25:21;63789.69;;;-144.75;100.00
5954;BME280;3002;42.642;24.812;2024-01-10T04:27:47;63789.69;;;-144.75;100.00
5954;BME280;3002;42.642;24.812;2024-01-10T04:30:15;63789.69;;;-144.75;100.00
5954;BME280;3002;42.642;24.812;2024-01-10T04:32:41;63789.69;;;-144.75;100.00
5954;BME280;3002;42.642;24.812;2024-01-10T04:35:06;63789.69;;;-144.75;100.00
5954;BME280;3002;42.642;24.812;2024-01-10T04:37:32;63789.69;;;-144.75;100.00
5954;BME280;3002;42.642;24.812;2024-01-10T04:39:57;63789.69;;;-144.75;100.00
5954;BME280;3002;42.642;24.812;2024-01-10T04:42:22;63789.69;;;-144.75;100.00
5954;BME280;3002;42.642;24.812;2024-01-10T04:44:54;63789.69;;;-144.75;100.00
5954;BME280;3002;42.642;24.812;2024-01-10T04:47:20;63789.69;;;-144.75;100.00
5954;BME280;3002;42.642;24.812;2024-01-10T04:49:45;63789.69;;;-144.75;100.00
5954;BME280;3002;42.642;24.812;2024-01-10T04:52:10;63789.69;;;-144.75;100.00
5954;BME280;3002;42.642;24.812;2024-01-10T04:54:36;63789.69;;;-144.75;100.00
5954;BME280;3002;42.642;24.812;2024-01-10T04:57:01;63789.69;;;-144.75;100.00
5954;BME280;3002;42.642;24.812;2024-01-10T05:00:04;63789.69;;;-144.75;100.00
5954;BME280;3002;42.642;24.812;2024-01-10T05:02:29;63789.69;;;-144.75;100.00
5954;BME280;3002;42.642;24.812;2024-01-10T05:04:55;63789.69;;;-144.75;100.00
5954;BME280;3002;42.642;24.812;2024-01-10T05:07:20;63789.69;;;-144.75;100.00
5954;BME280;3002;42.642;24.812;2024-01-10T05:09:46;63789.69;;;-144.75;100.00
5954;BME280;3002;42.642;24.812;2024-01-10T05:12:11;63789.69;;;-144.75;100.00
5954;BME280;3002;42.642;24.812;2024-01-10T05:14:37;63789.69;;;-144.75;100.00
5954;BME280;3002;42.642;24.812;2024-01-10T05:17:02;63789.69;;;-144.75;100.00
5954;BME280;3002;42.642;24.812;2024-01-10T05:19:28;63789.69;;;-144.75;100.00
5954;BME280;3002;42.642;24.812;2024-01-10T05:21:54;63789.69;;;-144.75;100.00
5954;BME280;3002;42.642;24.812;2024-01-10T05:24:20;63789.69;;;-144.75;100.00
5954;BME280;3002;42.642;24.812;2024-01-10T05:26:45;63789.69;;;-144.75;100.00
5954;BME280;3002;42.642;24.812;2024-01-10T05:29:11;63789.69;;;-144.75;100.00
5954;BME280;3002;42.642;24.812;2024-01-10T05:31:36;63789.69;;;-144.75;100.00
5954;BME280;3002;42.642;24.812;2024-01-10T05:34:02;63789.69;;;-144.75;100.00
5954;BME280;3002;42.642;24.812;2024-01-10T05:36:27;63789.69;;;-144.75;100.00
5954;BME280;3002;42.642;24.812;2024-01-10T05:38:52;63789.69;;;-144.75;100.00
5954;BME280;3002;42.642;24.812;2024-01-10T05:41:18;63789.69;;;-144.75;100.00
5954;BME280;3002;42.642;24.812;2024-01-10T05:43:44;63789.69;;;-144.75;100.00
5954;BME280;3002;42.642;24.812;2024-01-10T05:46:09;63789.69;;;-144.75;100.00
5954;BME280;3002;42.642;24.812;2024-01-10T05:48:35;63789.69;;;-144.75;100.00
5954;BME280;3002;42.642;24.812;2024-01-10T05:51:00;63789.69;;;-144.75;100.00
5954;BME280;3002;42.642;24.812;2024-01-10T05:53:26;63789.69;;;-144.75;100.00
5954;BME280;3002;42.642;24.812;2024-01-10T05:55:51;63789.69;;;-144.75;100.00
5954;BME280;3002;42.642;24.812;2024-01-10T05:58:17;63789.69;;;-144.75;100.00
5954;BME280;3002;42.642;24.812;2024-01-10T06:00:42;63789.69;;;-144.75;100.00
5954;BME280;3002;42.642;24.812;2024-01-10T06:03:08;63789.69;;;-144.75;100.00
5954;BME280;3002;42.642;24.812;2024-01-10T06:05:34;63789.69;;;-144.75;100.00
5954;BME280;3002;42.642;24.812;2024-01-10T06:07:59;63789.69;;;-144.75;100.00
5954;BME280;3002;42.642;24.812;2024-01-10T06:10:25;63789.69;;;-144.75;100.00
5954;BME280;3002;42.642;24.812;2024-01-10T06:12:50;63789.69;;;-144.75;100.00
5954;BME280;3002;42.642;24.812;2024-01-10T06:15:16;63789.69;;;-144.75;100.00
5954;BME280;3002;42.642;24.812;2024-01-10T06:17:41;63789.69;;;-144.75;100.00
5954;BME280;3002;42.642;24.812;2024-01-10T06:20:07;63789.69;;;-144.75;100.00
5954;BME280;3002;42.642;24.812;2024-01-10T06:22:33;63789.69;;;-144.75;100.00
5954;BME280;3002;42.642;24.812;2024-01-10T06:24:58;63789.69;;;-144.75;100.00
5954;BME280;3002;42.642;24.812;2024-01-10T06:27:24;63789.69;;;-144.75;100.00
5954;BME280;3002;42.642;24.812;2024-01-10T06:29:49;63789.69;;;-144.75;100.00
5954;BME280;3002;42.642;24.812;2024-01-10T06:32:15;63789.69;;;-144.75;100.00
5954;BME280;3002;42.642;24.812;2024-01-10T06:34:40;63789.69;;;-144.75;100.00
5954;BME280;3002;42.642;24.812;2024-01-10T06:37:06;63789.69;;;-144.75;100.00
5954;BME280;3002;42.642;24.812;2024-01-10T06:39:34;63789.69;;;-144.75;100.00
5954;BME280;3002;42.642;24.812;2024-01-10T06:42:00;63789.69;;;-144.75;100.00
5954;BME280;3002;42.642;24.812;2024-01-10T06:44:25;63789.69;;;-144.75;100.00
5954;BME280;3002;42.642;24.812;2024-01-10T06:46:53;63789.69;;;-144.75;100.00
5954;BME280;3002;42.642;24.812;2024-01-10T06:49:18;63789.69;;;-144.75;100.00
5954;BME280;3002;42.642;24.812;2024-01-10T06:51:44;63789.69;;;-144.75;100.00
5954;BME280;3002;42.642;24.812;2024-01-10T06:54:09;63789.69;;;-144.75;100.00
5954;BME280;3002;42.642;24.812;2024-01-10T06:56:35;63789.69;;;-144.75;100.00
5954;BME280;3002;42.642;24.812;2024-01-10T06:59:01;63789.69;;;-144.75;100.00
5954;BME280;3002;42.642;24.812;2024-01-10T07:01:27;63789.69;;;-144.75;100.00
5954;BME280;3002;42.642;24.812;2024-01-10T07:03:53;63789.69;;;-144.75;100.00
5954;BME280;3002;42.642;24.812;2024-01-10T07:06:21;63789.69;;;-144.75;100.00
5954;BME280;3002;42.642;24.812;2024-01-10T07:08:48;63789.69;;;-144.75;100.00
5954;BME280;3002;42.642;24.812;2024-01-10T07:11:15;63789.69;;;-144.75;100.00
5954;BME280;3002;42.642;24.812;2024-01-10T07:13:46;63789.69;;;-144.75;100.00
5954;BME280;3002;42.642;24.812;2024-01-10T07:16:12;63789.69;;;-144.75;100.00
5954;BME280;3002;42.642;24.812;2024-01-10T07:18:40;63789.69;;;-144.75;100.00
5954;BME280;3002;42.642;24.812;2024-01-10T07:21:05;63789.69;;;-144.75;100.00
5954;BME280;3002;42.642;24.812;2024-01-10T07:23:31;63789.69;;;-144.75;100.00
5954;BME280;3002;42.642;24.812;2024-01-10T07:25:57;63789.69;;;-144.75;100.00
5954;BME280;3002;42.642;24.812;2024-01-10T07:28:22;63789.69;;;-144.75;100.00
5954;BME280;3002;42.642;24.812;2024-01-10T07:30:48;63789.69;;;-144.75;100.00
5954;BME280;3002;42.642;24.812;2024-01-10T07:33:37;63789.69;;;-144.75;100.00
5954;BME280;3002;42.642;24.812;2024-01-10T07:36:41;63789.69;;;-144.75;100.00
5954;BME280;3002;42.642;24.812;2024-01-10T07:39:09;63789.69;;;-144.75;100.00
5954;BME280;3002;42.642;24.812;2024-01-10T07:41:35;63789.69;;;-144.75;100.00
5954;BME280;3002;42.642;24.812;2024-01-10T07:44:25;63789.69;;;-144.75;100.00
5954;BME280;3002;42.642;24.812;2024-01-10T07:46:51;63789.69;;;-144.75;100.00
5954;BME280;3002;42.642;24.812;2024-01-10T07:49:19;63789.69;;;-144.75;100.00
5954;BME280;3002;42.642;24.812;2024-01-10T07:51:50;63789.69;;;-144.75;100.00
5954;BME280;3002;42.642;24.812;2024-01-10T07:54:16;63789.69;;;-144.75;100.00
5954;BME280;3002;42.642;24.812;2024-01-10T07:56:42;63789.69;;;-144.75;100.00
5954;BME280;3002;42.642;24.812;2024-01-10T07:59:08;63789.69;;;-144.75;100.00
5954;BME280;3002;42.642;24.812;2024-01-10T08:01:33;63789.69;;;-144.75;100.00
5954;BME280;3002;42.642;24.812;2024-01-10T08:03:59;63789.69;;;-144.75;100.00
5954;BME280;3002;42.642;24.812;2024-01-10T08:06:24;63789.69;;;-144.75;100.00
5954;BME280;3002;42.642;24.812;2024-01-10T08:08:49;63789.69;;;-144.75;100.00
5954;BME280;3002;42.642;24.812;2024-01-10T08:11:15;63789.69;;;-144.75;100.00
5954;BME280;3002;42.642;24.812;2024-01-10T08:13:40;63789.69;;;-144.75;100.00
5954;BME280;3002;42.642;24.812;2024-01-10T08:16:06;63789.69;;;-144.75;100.00
5954;BME280;3002;42.642;24.812;2024-01-10T08:18:34;63789.69;;;-144.75;100.00
5954;BME280;3002;42.642;24.812;2024-01-10T08:20:59;63789.69;;;-144.75;100.00
5954;BME280;3002;42.642;24.812;2024-01-10T08:23:25;63789.69;;;-144.75;100.00
5954;BME280;3002;42.642;24.812;2024-01-10T08:25:50;63789.69;;;-144.75;100.00
5954;BME280;3002;42.642;24.812;2024-01-10T08:28:16;63789.69;;;-144.75;100.00
5954;BME280;3002;42.642;24.812;2024-01-10T08:30:41;63789.69;;;-144.75;100.00
5954;BME280;3002;42.642;24.812;2024-01-10T08:33:07;63789.69;;;-144.75;100.00
5954;BME280;3002;42.642;24.812;2024-01-10T08:35:32;63789.69;;;-144.75;100.00
5954;BME280;3002;42.642;24.812;2024-01-10T08:37:58;63789.69;;;-144.75;100.00
5954;BME280;3002;42.642;24.812;2024-01-10T08:40:23;63789.69;;;-144.75;100.00
5954;BME280;3002;42.642;24.812;2024-01-10T08:42:51;63789.69;;;-144.75;100.00
5954;BME280;3002;42.642;24.812;2024-01-10T08:45:17;63789.69;;;-144.75;100.00
5954;BME280;3002;42.642;24.812;2024-01-10T08:47:42;63789.69;;;-144.75;100.00
5954;BME280;3002;42.642;24.812;2024-01-10T08:50:10;63789.69;;;-144.75;100.00
5954;BME280;3002;42.642;24.812;2024-01-10T08:52:36;63789.69;;;-144.75;100.00
5954;BME280;3002;42.642;24.812;2024-01-10T08:55:07;63789.69;;;-144.75;100.00
5954;BME280;3002;42.642;24.812;2024-01-10T08:57:33;63789.69;;;-144.75;100.00
5954;BME280;3002;42.642;24.812;2024-01-10T08:59:58;63789.69;;;-144.75;100.00
5954;BME280;3002;42.642;24.812;2024-01-10T09:02:25;63789.69;;;-144.75;100.00
5954;BME280;3002;42.642;24.812;2024-01-10T09:04:52;63789.69;;;-144.75;100.00
5954;BME280;3002;42.642;24.812;2024-01-10T09:07:18;63789.69;;;-144.75;100.00
5954;BME280;3002;42.642;24.812;2024-01-10T09:09:44;63789.69;;;-144.75;100.00
5954;BME280;3002;42.642;24.812;2024-01-10T09:12:10;63789.69;;;-144.75;100.00
5954;BME280;3002;42.642;24.812;2024-01-10T09:14:35;63789.69;;;-144.75;100.00
5954;BME280;3002;42.642;24.812;2024-01-10T09:17:01;63789.69;;;-144.75;100.00
5954;BME280;3002;42.642;24.812;2024-01-10T09:19:31;63789.69;;;-144.75;100.00
5954;BME280;3002;42.642;24.812;2024-01-10T09:21:56;63789.69;;;-144.75;100.00
5954;BME280;3002;42.642;24.812;2024-01-10T09:24:23;63789.69;;;-144.75;100.00
5954;BME280;3002;42.642;24.812;2024-01-10T09:26:48;63789.69;;;-144.75;100.00
5954;BME280;3002;42.642;24.812;2024-01-10T09:29:14;63789.69;;;-144.75;100.00
5954;BME280;3002;42.642;24.812;2024-01-10T09:31:39;63789.69;;;-144.75;100.00
5954;BME280;3002;42.642;24.812;2024-01-10T09:34:05;63789.69;;;-144.75;100.00
5954;BME280;3002;42.642;24.812;2024-01-10T09:36:30;63789.69;;;-144.75;100.00
5954;BME280;3002;42.642;24.812;2024-01-10T09:38:56;63789.69;;;-144.75;100.00
5954;BME280;3002;42.642;24.812;2024-01-10T09:41:22;63789.69;;;-144.75;100.00
5954;BME280;3002;42.642;24.812;2024-01-10T09:43:50;63789.69;;;-144.75;100.00
5954;BME280;3002;42.642;24.812;2024-01-10T09:46:16;63789.69;;;-144.75;100.00
5954;BME280;3002;42.642;24.812;2024-01-10T09:48:44;63789.69;;;-144.75;100.00
5954;BME280;3002;42.642;24.812;2024-01-10T09:51:11;63789.69;;;-144.75;100.00
5954;BME280;3002;42.642;24.812;2024-01-10T09:53:41;63789.69;;;-144.75;100.00
5954;BME280;3002;42.642;24.812;2024-01-10T09:56:09;63789.69;;;-144.75;100.00
5954;BME280;3002;42.642;24.812;2024-01-10T09:58:35;63789.69;;;-144.75;100.00
5954;BME280;3002;42.642;24.812;2024-01-10T10:01:12;63789.69;;;-144.75;100.00
5954;BME280;3002;42.642;24.812;2024-01-10T10:03:41;63789.69;;;-144.75;100.00
5954;BME280;3002;42.642;24.812;2024-01-10T10:06:08;63789.69;;;-144.75;100.00
5954;BME280;3002;42.642;24.812;2024-01-10T10:08:33;63789.69;;;-144.75;100.00
5954;BME280;3002;42.642;24.812;2024-01-10T10:10:58;63789.69;;;-144.75;100.00
5954;BME280;3002;42.642;24.812;2024-01-10T10:13:28;63789.69;;;-144.75;100.00
5954;BME280;3002;42.642;24.812;2024-01-10T10:18:24;63789.69;;;-144.75;100.00
5954;BME280;3002;42.642;24.812;2024-01-10T10:21:11;63789.69;;;-144.75;100.00
5954;BME280;3002;42.642;24.812;2024-01-10T10:24:01;63789.69;;;-144.75;100.00
5954;BME280;3002;42.642;24.812;2024-01-10T10:26:27;63789.69;;;-144.75;100.00
5954;BME280;3002;42.642;24.812;2024-01-10T10:28:54;63789.69;;;-144.75;100.00
5954;BME280;3002;42.642;24.812;2024-01-10T10:31:21;63789.69;;;-144.75;100.00
5954;BME280;3002;42.642;24.812;2024-01-10T10:33:51;63789.69;;;-144.75;100.00
5954;BME280;3002;42.642;24.812;2024-01-10T10:36:18;63789.69;;;-144.75;100.00
5954;BME280;3002;42.642;24.812;2024-01-10T10:38:43;63789.69;;;-144.75;100.00
5954;BME280;3002;42.642;24.812;2024-01-10T10:41:09;63789.69;;;-144.75;100.00
5954;BME280;3002;42.642;24.812;2024-01-10T10:43:39;63789.69;;;-144.75;100.00
5954;BME280;3002;42.642;24.812;2024-01-10T10:46:08;63789.69;;;-144.75;100.00
5954;BME280;3002;42.642;24.812;2024-01-10T10:48:42;63789.69;;;-144.75;100.00
5954;BME280;3002;42.642;24.812;2024-01-10T10:51:19;63789.69;;;-144.75;100.00
5954;BME280;3002;42.642;24.812;2024-01-10T10:53:49;63789.69;;;-144.75;100.00
5954;BME280;3002;42.642;24.812;2024-01-10T10:56:16;63789.69;;;-144.75;100.00
5954;BME280;3002;42.642;24.812;2024-01-10T10:58:43;63789.69;;;-144.75;100.00
5954;BME280;3002;42.642;24.812;2024-01-10T11:01:11;63789.69;;;-144.75;100.00
5954;BME280;3002;42.642;24.812;2024-01-10T11:03:39;63789.69;;;-144.75;100.00
5954;BME280;3002;42.642;24.812;2024-01-10T11:06:05;63789.69;;;-144.75;100.00
5954;BME280;3002;42.642;24.812;2024-01-10T11:08:45;63789.69;;;-144.75;100.00
5954;BME280;3002;42.642;24.812;2024-01-10T11:20:13;63789.69;;;-144.75;100.00
5954;BME280;3002;42.642;24.812;2024-01-10T11:23:10;63789.69;;;-144.75;100.00
5954;BME280;3002;42.642;24.812;2024-01-10T11:25:40;63789.69;;;-144.75;100.00
5954;BME280;3002;42.642;24.812;2024-01-10T11:28:06;63789.69;;;-144.75;100.00
5954;BME280;3002;42.642;24.812;2024-01-10T11:30:36;63789.69;;;-144.75;100.00
5954;BME280;3002;42.642;24.812;2024-01-10T11:33:30;63789.69;;;-144.75;100.00
5954;BME280;3002;42.642;24.812;2024-01-10T11:36:26;63789.69;;;-144.75;100.00
5954;BME280;3002;42.642;24.812;2024-01-10T11:41:28;63789.69;;;-144.75;100.00
5954;BME280;3002;42.642;24.812;2024-01-10T11:46:38;63789.69;;;-144.75;100.00
5954;BME280;3002;42.642;24.812;2024-01-10T11:49:07;63789.69;;;-144.75;100.00
5954;BME280;3002;42.642;24.812;2024-01-10T11:51:35;63789.69;;;-144.75;100.00
5954;BME280;3002;42.642;24.812;2024-01-10T11:54:02;63789.69;;;-144.75;100.00
5954;BME280;3002;42.642;24.812;2024-01-10T11:56:38;63789.69;;;-144.75;100.00
5954;BME280;3002;42.642;24.812;2024-01-10T11:59:06;63789.69;;;-144.75;100.00
5954;BME280;3002;42.642;24.812;2024-01-10T12:01:42;63789.69;;;-144.75;100.00
5954;BME280;3002;42.642;24.812;2024-01-10T12:04:08;63789.69;;;-144.75;100.00
5954;BME280;3002;42.642;24.812;2024-01-10T12:06:37;63789.69;;;-144.75;100.00
5954;BME280;3002;42.642;24.812;2024-01-10T12:09:03;63789.69;;;-144.75;100.00
5954;BME280;3002;42.642;24.812;2024-01-10T12:11:38;63789.69;;;-144.75;100.00
5954;BME280;3002;42.642;24.812;2024-01-10T12:14:04;63789.69;;;-144.75;100.00
5954;BME280;3002;42.642;24.812;2024-01-10T12:16:32;63789.69;;;-144.75;100.00
5954;BME280;3002;42.642;24.812;2024-01-10T12:18:58;63789.69;;;-144.75;100.00
5954;BME280;3002;42.642;24.812;2024-01-10T12:21:23;63789.69;;;-144.75;100.00
5954;BME280;3002;42.642;24.812;2024-01-10T12:23:49;63789.69;;;-144.75;100.00
5954;BME280;3002;42.642;24.812;2024-01-10T12:26:17;63789.69;;;-144.75;100.00
5954;BME280;3002;42.642;24.812;2024-01-10T12:28:56;63789.69;;;-144.75;100.00
5954;BME280;3002;42.642;24.812;2024-01-10T12:31:23;63789.69;;;-144.75;100.00
5954;BME280;3002;42.642;24.812;2024-01-10T12:33:49;63789.69;;;-144.75;100.00
5954;BME280;3002;42.642;24.812;2024-01-10T12:36:17;63789.69;;;-144.75;100.00
5954;BME280;3002;42.642;24.812;2024-01-10T12:38:43;63789.69;;;-144.75;100.00
5954;BME280;3002;42.642;24.812;2024-01-10T12:41:09;63789.69;;;-144.75;100.00
5954;BME280;3002;42.642;24.812;2024-01-10T12:43:36;63789.69;;;-144.75;100.00
5954;BME280;3002;42.642;24.812;2024-01-10T12:46:10;63789.69;;;-144.75;100.00
5954;BME280;3002;42.642;24.812;2024-01-10T12:48:41;63789.69;;;-144.75;100.00
5954;BME280;3002;42.642;24.812;2024-01-10T12:51:11;63789.69;;;-144.75;100.00
5954;BME280;3002;42.642;24.812;2024-01-10T12:53:43;63789.69;;;-144.75;100.00
5954;BME280;3002;42.642;24.812;2024-01-10T12:56:10;63789.69;;;-144.75;100.00
5954;BME280;3002;42.642;24.812;2024-01-10T12:58:41;63789.69;;;-144.75;100.00
5954;BME280;3002;42.642;24.812;2024-01-10T13:01:10;63789.69;;;-144.75;100.00
5954;BME280;3002;42.642;24.812;2024-01-10T13:03:38;63789.69;;;-144.75;100.00
5954;BME280;3002;42.642;24.812;2024-01-10T13:06:04;63789.69;;;-144.75;100.00
5954;BME280;3002;42.642;24.812;2024-01-10T13:08:30;63789.69;;;-144.75;100.00
5954;BME280;3002;42.642;24.812;2024-01-10T13:10:57;63789.69;;;-144.75;100.00